Main page
METAR-TAF:

METAR-TAF

Airports :

Melilla Airport

Melilla, Spain

latitude: 35-17N, longitude: 002-57W, elevation: 47 m

Current weather observation

The report was made 1 hour and 0 minutes ago, at 11:00 UTC
Wind 6 kt from the West/Northwest, varying between West/Southwest and North
Temperature 20°C
Humidity 68%
Pressure 1017 hPa
Visibility 10 km or more
Few clouds at a height of 2200 ft

METAR: GEML 061100Z 30006KT 250V350 9999 FEW022 20/14 Q1017

Time: 13:00 (12:00 UTC)

Forecast

The report was made 1 hour and 0 minutes ago, at 11:00 UTC
Forecast valid from 06 at 12 UTC to 07 at 12 UTC
Wind 7 kt from the West
Visibility 10 km or more
Few clouds at a height of 2000 ft

TAF: GEML 061100Z 0612/0712 28007KT 9999 FEW020 TX21/0612Z TN14/0706Z

Weather observations and forecasts of more than 4000 airports (METAR and TAF reports).

The available stations are represented by yellow and red dots on the map.

Hover mouse over dot to see the name of the station.

Then click to see weather observations and forecasts.

To change the map : click on the green buttons with a black cross to zoom in, on the green button with a dash to zoom out, or on the green arrows for adjacent maps.


METAR-TAF: